• Join FlightAware (Why Join?)
  • Login
  • US Flag 
11:48PM EDT


 

Airport Tracker/Info


-or-


 

Live Flight TrackerFlight Track Log ✈ SWA499 ✈ 02-May-2013 ✈ KSLC - KDEN

Flight Track Log - Related Links

Times and Time Zones

All times are in EDT time to prevent confusion due to time zone crossing. See the SWA499 flight status page for this flight to view local times or setup timezone preferences in your user account.

Time Position Orientation Groundspeed Altitude Reporting Facility
EDT Latitude Longitude Course Direction KTS MPH feet Rate Location/Type
10:24AM 40.7989 -111.9622 358° North 168 193 4,700  Level Salt Lake Center
10:25AM 40.8206 -111.9633 358° North 188 216 5,700 1,920 Climbing Salt Lake Center
10:26AM 40.8747 -111.9708 354° North 203 234 7,700 2,220 Climbing Salt Lake Center
10:27AM 40.9428 -111.9814 353° North 240 276 10,600 2,580 Climbing Salt Lake Center
10:28AM 40.9833 -111.9344 41° Northeast 262 302 13,100 2,280 Climbing Salt Lake Center
10:29AM 40.9594 -111.8039 104° East 334 384 15,300 2,520 Climbing Salt Lake Center
10:30AM 40.9467 -111.6783 98° East 353 406 18,300 2,340 Climbing Salt Lake Center
10:31AM 40.9283 -111.5400 100° East 382 440 20,200 2,160 Climbing Salt Lake Center
10:32AM 40.9089 -111.3931 100° East 405 466 22,800 2,700 Climbing Salt Lake Center
10:33AM 40.8872 -111.2100 99° East 421 484 25,800 2,460 Climbing Salt Lake Center
10:34AM 40.8686 -111.0539 99° East 430 495 27,900 1,920 Climbing Salt Lake Center
10:35AM 40.8483 -110.8931 99° East 443 510 29,800 1,740 Climbing Salt Lake Center
10:36AM 40.8286 -110.7269 99° East 456 525 31,500 1,500 Climbing Salt Lake Center
10:37AM 40.8069 -110.5453 99° East 466 536 33,000 1,260 Climbing Salt Lake Center
10:38AM 40.7858 -110.3797 100° East 478 550 34,200 1,560 Climbing Salt Lake Center
10:39AM 40.7589 -110.1808 100° East 481 554 36,300 1,860 Climbing Salt Lake Center
10:40AM 40.7403 -110.0194 99° East 468 539 38,100 1,200 Climbing Salt Lake Center
10:41AM 40.7275 -109.8297 95° East 466 536 38,800 420 Climbing Salt Lake Center
10:42AM 40.7153 -109.6619 95° East 477 549 39,000 60 Climbing Salt Lake Center
10:43AM 40.7025 -109.4967 96° East 473 544 39,000  Level Salt Lake Center
10:44AM 40.6894 -109.3056 95° East 470 541 39,000  Level Salt Lake Center
10:45AM 40.6775 -109.1253 95° East 471 542 39,000 -180 Level Salt Lake Center
10:46AM 40.6656 -108.9625 95° East 471 542 38,700 -720 Descending Salt Lake Center
10:47AM 40.6525 -108.7722 95° East 472 543 37,600 -840 Descending Salt Lake Center
10:48AM 40.6406 -108.6069 95° East 475 547 37,000 -300 Descending Salt Lake Center
10:49AM 40.6258 -108.4181 96° East 470 541 37,000  Level Salt Lake Center
10:51AM 40.6125 -108.2547 96° East 470 541 37,000  Level Salt Lake Center
10:52AM 40.5981 -108.0703 96° East 470 541 37,000  Level Denver Center
10:53AM 40.5850 -107.9044 96° East 474 545 37,000 -240 Level Denver Center
10:54AM 40.5692 -107.7131 96° East 472 543 36,600 -720 Descending Denver Center
10:55AM 40.5542 -107.5536 97° East 463 533 35,600 -780 Descending Denver Center
10:56AM 40.5394 -107.3703 96° East 454 522 35,000 -300 Descending Denver Center
10:57AM 40.5258 -107.2064 96° East 454 522 35,000  Level Denver Center
10:58AM 40.5117 -107.0414 96° East 453 521 35,000  Level Denver Center
10:59AM 40.4958 -106.8753 97° East 456 525 35,000 -240 Level Denver Center
11:00AM 40.4811 -106.7108 97° East 452 520 34,600 -960 Descending Denver Center
11:01AM 40.4658 -106.5481 97° East 449 517 33,100 -2,160 Descending Denver Center
11:02AM 40.4503 -106.3797 97° East 445 512 30,200 -2,640 Descending Denver Center
11:03AM 40.4333 -106.2017 97° East 442 509 27,600 -2,280 Descending Denver Center
11:04AM 40.4183 -106.0442 97° East 419 482 25,500 -2,040 Descending Denver Center
11:05AM 40.4031 -105.8969 98° East 401 461 23,500 -1,860 Descending Denver Center
11:06AM 40.3908 -105.7636 97° East 380 437 21,700 -1,800 Descending Denver Center
11:07AM 40.3739 -105.6206 99° East 389 448 19,800 -1,560 Descending Denver Center
11:08AM 40.3614 -105.4889 97° East 377 434 18,500 -960 Descending Denver Center
11:09AM 40.3464 -105.3606 99° East 324 373 17,900 -1,260 Descending Denver Center
11:10AM 40.3289 -105.2397 101° East 316 364 16,000 -1,800 Descending Denver Center
11:11AM 40.3139 -105.1267 100° East 315 362 14,300 -1,440 Descending Denver Center
11:12AM 40.2975 -105.0108 100° East 303 349 13,100 -1,080 Descending Denver Center
11:13AM 40.2569 -104.9214 121° Southeast 289 333 12,100 -780 Descending Denver Center
11:14AM 40.2178 -104.8369 121° Southeast 276 318 11,500 -780 Descending Denver Center
11:15AM 40.1517 -104.7936 153° Southeast 246 283 10,600 -1,020 Descending Denver Center
11:16AM 40.0908 -104.7581 156° South 240 276 9,400 -1,260 Descending Denver Center
11:17AM 40.0264 -104.7219 157° South 235 270 8,000 -1,200 Descending Denver Center
11:18AM 39.9772 -104.6944 157° South 197 227 7,000 -960 Descending Denver Center
11:19AM 39.9283 -104.6958 181° South 164 189 6,100 -840 Descending Denver Center
11:20AM 39.8911 -104.6964 181° South 149 171 5,300 -780 Descending Denver Center
11:22AM 39.8617 -104.6732 North  Level Estimated
11:29AM 39.8617 -104.6732 North  Level Estimated
11:30AM 39.8617 -104.6732 North  Level Estimated
11:31AM 39.8617 -104.6732 North  Level Estimated